sensor_id;sensor_type;location;lat;lon;timestamp;pressure;altitude;pressure_sealevel;temperature;humidity
33845;BME280;20145;43.118;25.694;2022-09-20T00:00:45;99466.59;;;15.56;60.02
33845;BME280;20145;43.118;25.694;2022-09-20T00:03:11;99464.22;;;15.49;58.56
33845;BME280;20145;43.118;25.694;2022-09-20T00:05:40;99468.03;;;15.38;59.24
33845;BME280;20145;43.118;25.694;2022-09-20T00:08:10;99468.47;;;15.51;60.32
33845;BME280;20145;43.118;25.694;2022-09-20T00:10:37;99469.19;;;15.56;61.56
33845;BME280;20145;43.118;25.694;2022-09-20T00:13:07;99467.75;;;15.46;59.76
33845;BME280;20145;43.118;25.694;2022-09-20T00:15:33;99467.69;;;15.49;59.96
33845;BME280;20145;43.118;25.694;2022-09-20T00:17:59;99464.69;;;15.33;60.13
33845;BME280;20145;43.118;25.694;2022-09-20T00:20:25;99470.78;;;15.32;59.87
33845;BME280;20145;43.118;25.694;2022-09-20T00:22:51;99469.91;;;15.33;59.59
33845;BME280;20145;43.118;25.694;2022-09-20T00:25:17;99466.47;;;15.33;60.28
33845;BME280;20145;43.118;25.694;2022-09-20T00:27:44;99460.56;;;15.26;59.95
33845;BME280;20145;43.118;25.694;2022-09-20T00:30:11;99465.75;;;15.28;60.03
33845;BME280;20145;43.118;25.694;2022-09-20T00:32:38;99464.44;;;15.13;60.63
33845;BME280;20145;43.118;25.694;2022-09-20T00:35:04;99453.16;;;15.14;60.27
33845;BME280;20145;43.118;25.694;2022-09-20T00:37:34;99465.97;;;15.20;59.60
33845;BME280;20145;43.118;25.694;2022-09-20T00:40:01;99462.94;;;15.06;59.17
33845;BME280;20145;43.118;25.694;2022-09-20T00:42:28;99447.34;;;15.06;58.98
33845;BME280;20145;43.118;25.694;2022-09-20T00:52:38;99474.03;;;14.81;60.18
33845;BME280;20145;43.118;25.694;2022-09-20T00:55:06;99464.69;;;14.74;62.36
33845;BME280;20145;43.118;25.694;2022-09-20T00:57:33;99460.63;;;14.65;61.52
33845;BME280;20145;43.118;25.694;2022-09-20T01:00:04;99476.19;;;14.65;63.27
33845;BME280;20145;43.118;25.694;2022-09-20T01:02:32;99474.78;;;14.55;61.15
33845;BME280;20145;43.118;25.694;2022-09-20T01:04:59;99478.38;;;14.48;63.19
33845;BME280;20145;43.118;25.694;2022-09-20T01:07:25;99475.78;;;14.48;61.62
33845;BME280;20145;43.118;25.694;2022-09-20T01:09:51;99462.78;;;14.49;64.91
33845;BME280;20145;43.118;25.694;2022-09-20T01:12:22;99468.09;;;14.43;64.08
33845;BME280;20145;43.118;25.694;2022-09-20T01:14:50;99471.03;;;14.31;63.67
33845;BME280;20145;43.118;25.694;2022-09-20T01:17:18;99454.81;;;14.23;64.05
33845;BME280;20145;43.118;25.694;2022-09-20T01:20:07;99464.91;;;14.34;64.54
33845;BME280;20145;43.118;25.694;2022-09-20T01:28:49;99461.03;;;14.17;64.12
33845;BME280;20145;43.118;25.694;2022-09-20T01:31:24;99460.09;;;14.20;64.30
33845;BME280;20145;43.118;25.694;2022-09-20T01:33:58;99460.38;;;14.09;65.10
33845;BME280;20145;43.118;25.694;2022-09-20T01:36:32;99461.13;;;14.13;66.52
33845;BME280;20145;43.118;25.694;2022-09-20T01:42:04;99460.63;;;13.98;64.68
33845;BME280;20145;43.118;25.694;2022-09-20T01:44:34;99457.13;;;13.99;64.67
33845;BME280;20145;43.118;25.694;2022-09-20T01:47:38;99466.25;;;13.81;65.10
33845;BME280;20145;43.118;25.694;2022-09-20T01:53:19;99457.63;;;13.79;64.29
33845;BME280;20145;43.118;25.694;2022-09-20T01:55:59;99458.88;;;13.65;65.86
33845;BME280;20145;43.118;25.694;2022-09-20T02:01:26;99453.00;;;13.56;65.70
33845;BME280;20145;43.118;25.694;2022-09-20T02:06:53;99451.50;;;13.48;65.78
33845;BME280;20145;43.118;25.694;2022-09-20T02:09:48;99457.00;;;13.34;66.15
33845;BME280;20145;43.118;25.694;2022-09-20T02:24:27;99470.22;;;13.20;68.38
33845;BME280;20145;43.118;25.694;2022-09-20T02:27:23;99481.34;;;13.25;66.40
33845;BME280;20145;43.118;25.694;2022-09-20T02:35:24;99479.56;;;13.27;67.07
33845;BME280;20145;43.118;25.694;2022-09-20T02:38:00;99473.47;;;13.30;65.97
33845;BME280;20145;43.118;25.694;2022-09-20T02:41:03;99466.03;;;13.14;65.87
33845;BME280;20145;43.118;25.694;2022-09-20T02:43:56;99475.28;;;13.28;65.77
33845;BME280;20145;43.118;25.694;2022-09-20T02:51:59;99471.28;;;13.11;65.36
33845;BME280;20145;43.118;25.694;2022-09-20T02:54:41;99469.63;;;13.07;66.10
33845;BME280;20145;43.118;25.694;2022-09-20T02:57:13;99471.50;;;12.99;64.66
33845;BME280;20145;43.118;25.694;2022-09-20T02:59:49;99468.13;;;12.95;65.96
33845;BME280;20145;43.118;25.694;2022-09-20T03:05:16;99469.13;;;12.90;67.22
33845;BME280;20145;43.118;25.694;2022-09-20T03:14:01;99473.59;;;12.82;65.68
33845;BME280;20145;43.118;25.694;2022-09-20T03:20:03;99474.59;;;12.75;65.09
33845;BME280;20145;43.118;25.694;2022-09-20T03:22:57;99469.41;;;12.75;66.17
33845;BME280;20145;43.118;25.694;2022-09-20T03:25:40;99479.84;;;12.71;66.32
33845;BME280;20145;43.118;25.694;2022-09-20T03:28:33;99475.63;;;12.67;65.81
33845;BME280;20145;43.118;25.694;2022-09-20T03:44:49;99476.38;;;12.72;65.35
33845;BME280;20145;43.118;25.694;2022-09-20T03:51:00;99488.63;;;12.63;65.59
33845;BME280;20145;43.118;25.694;2022-09-20T03:59:17;99506.94;;;12.52;66.00
33845;BME280;20145;43.118;25.694;2022-09-20T04:20:52;99521.88;;;12.39;66.74
33845;BME280;20145;43.118;25.694;2022-09-20T04:25:50;99520.53;;;12.63;66.95
33845;BME280;20145;43.118;25.694;2022-09-20T04:28:23;99517.75;;;12.74;66.03
33845;BME280;20145;43.118;25.694;2022-09-20T04:30:55;99518.50;;;12.81;65.95
33845;BME280;20145;43.118;25.694;2022-09-20T04:33:35;99528.69;;;12.88;65.28
33845;BME280;20145;43.118;25.694;2022-09-20T04:39:01;99536.31;;;12.98;65.23
33845;BME280;20145;43.118;25.694;2022-09-20T04:42:35;99534.28;;;13.12;64.66
33845;BME280;20145;43.118;25.694;2022-09-20T05:18:43;99554.59;;;14.80;58.29
33845;BME280;20145;43.118;25.694;2022-09-20T05:21:32;99551.13;;;14.79;59.04
33845;BME280;20145;43.118;25.694;2022-09-20T05:25:03;99555.28;;;14.86;57.63
33845;BME280;20145;43.118;25.694;2022-09-20T05:30:29;99545.97;;;15.10;58.45
33845;BME280;20145;43.118;25.694;2022-09-20T05:33:17;99555.47;;;15.11;58.08
33845;BME280;20145;43.118;25.694;2022-09-20T06:01:06;99570.63;;;14.63;58.41
33845;BME280;20145;43.118;25.694;2022-09-20T06:03:42;99569.31;;;14.79;58.01
33845;BME280;20145;43.118;25.694;2022-09-20T06:06:17;99573.47;;;14.86;58.65
33845;BME280;20145;43.118;25.694;2022-09-20T06:11:47;99566.88;;;15.06;56.00
33845;BME280;20145;43.118;25.694;2022-09-20T06:17:27;99563.25;;;15.11;55.45
33845;BME280;20145;43.118;25.694;2022-09-20T06:22:27;99565.09;;;15.37;56.03
33845;BME280;20145;43.118;25.694;2022-09-20T06:25:09;99567.69;;;15.08;55.01
33845;BME280;20145;43.118;25.694;2022-09-20T06:28:37;99571.47;;;15.27;54.36
33845;BME280;20145;43.118;25.694;2022-09-20T06:30:40;99561.72;;;15.35;54.14
33845;BME280;20145;43.118;25.694;2022-09-20T06:33:16;99562.50;;;15.67;54.83
33845;BME280;20145;43.118;25.694;2022-09-20T06:35:50;99572.06;;;15.95;52.47
33845;BME280;20145;43.118;25.694;2022-09-20T06:41:13;99576.59;;;15.30;54.21
33845;BME280;20145;43.118;25.694;2022-09-20T06:43:58;99566.09;;;15.33;54.06
33845;BME280;20145;43.118;25.694;2022-09-20T06:46:28;99566.97;;;15.32;53.25
33845;BME280;20145;43.118;25.694;2022-09-20T06:48:55;99574.28;;;15.20;53.52
33845;BME280;20145;43.118;25.694;2022-09-20T06:51:23;99557.88;;;15.17;54.05
33845;BME280;20145;43.118;25.694;2022-09-20T06:53:50;99562.91;;;15.24;53.80
33845;BME280;20145;43.118;25.694;2022-09-20T06:56:21;99567.34;;;15.20;54.05
33845;BME280;20145;43.118;25.694;2022-09-20T06:58:49;99570.59;;;14.97;55.37
33845;BME280;20145;43.118;25.694;2022-09-20T07:01:17;99572.81;;;15.11;55.85
33845;BME280;20145;43.118;25.694;2022-09-20T07:03:43;99563.00;;;15.21;53.96
33845;BME280;20145;43.118;25.694;2022-09-20T07:06:09;99567.88;;;15.61;53.96
33845;BME280;20145;43.118;25.694;2022-09-20T07:08:35;99571.19;;;15.66;52.75
33845;BME280;20145;43.118;25.694;2022-09-20T07:11:11;99580.16;;;15.56;53.80
33845;BME280;20145;43.118;25.694;2022-09-20T07:13:37;99575.94;;;15.52;54.37
33845;BME280;20145;43.118;25.694;2022-09-20T07:16:06;99578.41;;;15.27;53.33
33845;BME280;20145;43.118;25.694;2022-09-20T07:18:33;99574.44;;;15.45;52.98
33845;BME280;20145;43.118;25.694;2022-09-20T07:20:59;99574.97;;;15.56;53.73
33845;BME280;20145;43.118;25.694;2022-09-20T07:23:26;99576.97;;;15.77;53.19
33845;BME280;20145;43.118;25.694;2022-09-20T07:25:54;99582.69;;;15.59;53.34
33845;BME280;20145;43.118;25.694;2022-09-20T07:28:23;99590.16;;;15.71;52.97
33845;BME280;20145;43.118;25.694;2022-09-20T07:30:49;99582.06;;;15.80;52.99
33845;BME280;20145;43.118;25.694;2022-09-20T07:33:15;99580.84;;;15.92;52.93
33845;BME280;20145;43.118;25.694;2022-09-20T07:35:47;99582.88;;;16.11;52.87
33845;BME280;20145;43.118;25.694;2022-09-20T07:38:13;99573.50;;;16.32;50.80
33845;BME280;20145;43.118;25.694;2022-09-20T07:40:40;99567.53;;;16.55;50.47
33845;BME280;20145;43.118;25.694;2022-09-20T07:43:06;99576.28;;;16.79;50.78
33845;BME280;20145;43.118;25.694;2022-09-20T07:45:32;99584.19;;;17.01;49.13
33845;BME280;20145;43.118;25.694;2022-09-20T07:47:59;99566.78;;;17.01;49.16
33845;BME280;20145;43.118;25.694;2022-09-20T07:50:30;99570.50;;;17.19;47.68
33845;BME280;20145;43.118;25.694;2022-09-20T07:52:56;99572.69;;;17.06;48.53
33845;BME280;20145;43.118;25.694;2022-09-20T07:55:22;99573.38;;;16.61;49.24
33845;BME280;20145;43.118;25.694;2022-09-20T07:57:48;99570.03;;;16.31;51.18
33845;BME280;20145;43.118;25.694;2022-09-20T08:00:14;99559.88;;;16.23;51.45
33845;BME280;20145;43.118;25.694;2022-09-20T08:02:40;99580.19;;;16.12;52.24
33845;BME280;20145;43.118;25.694;2022-09-20T08:05:06;99574.88;;;16.15;51.01
33845;BME280;20145;43.118;25.694;2022-09-20T08:07:31;99576.00;;;16.08;50.73
33845;BME280;20145;43.118;25.694;2022-09-20T08:09:57;99550.56;;;16.16;51.78
33845;BME280;20145;43.118;25.694;2022-09-20T08:12:24;99568.59;;;16.74;50.18
33845;BME280;20145;43.118;25.694;2022-09-20T08:14:51;99574.19;;;17.37;49.33
33845;BME280;20145;43.118;25.694;2022-09-20T08:17:16;99569.81;;;17.61;47.87
33845;BME280;20145;43.118;25.694;2022-09-20T08:19:43;99566.22;;;17.40;47.68
33845;BME280;20145;43.118;25.694;2022-09-20T08:22:09;99559.41;;;17.59;47.27
33845;BME280;20145;43.118;25.694;2022-09-20T08:24:37;99562.56;;;17.68;47.46
33845;BME280;20145;43.118;25.694;2022-09-20T08:27:04;99569.06;;;17.81;47.09
33845;BME280;20145;43.118;25.694;2022-09-20T08:29:29;99557.81;;;18.01;46.59
33845;BME280;20145;43.118;25.694;2022-09-20T08:31:55;99561.19;;;18.04;47.18
33845;BME280;20145;43.118;25.694;2022-09-20T08:34:22;99552.09;;;17.46;48.72
33845;BME280;20145;43.118;25.694;2022-09-20T08:36:48;99562.03;;;17.12;48.86
33845;BME280;20145;43.118;25.694;2022-09-20T08:39:16;99554.16;;;17.37;47.82
33845;BME280;20145;43.118;25.694;2022-09-20T08:41:45;99541.34;;;17.31;47.20
33845;BME280;20145;43.118;25.694;2022-09-20T08:46:47;99554.41;;;17.77;46.97
33845;BME280;20145;43.118;25.694;2022-09-20T08:49:27;99538.44;;;17.84;48.37
33845;BME280;20145;43.118;25.694;2022-09-20T08:51:55;99547.47;;;17.76;46.31
33845;BME280;20145;43.118;25.694;2022-09-20T08:54:24;99547.00;;;17.43;46.92
33845;BME280;20145;43.118;25.694;2022-09-20T08:56:51;99546.69;;;17.28;47.31
33845;BME280;20145;43.118;25.694;2022-09-20T08:59:19;99544.28;;;17.24;48.25
33845;BME280;20145;43.118;25.694;2022-09-20T09:01:49;99537.84;;;17.32;48.06
33845;BME280;20145;43.118;25.694;2022-09-20T09:04:22;99536.88;;;17.57;47.12
33845;BME280;20145;43.118;25.694;2022-09-20T09:06:49;99535.03;;;17.60;46.97
33845;BME280;20145;43.118;25.694;2022-09-20T09:09:21;99522.47;;;17.70;47.02
33845;BME280;20145;43.118;25.694;2022-09-20T09:11:48;99528.00;;;18.06;45.77
33845;BME280;20145;43.118;25.694;2022-09-20T09:14:24;99509.41;;;18.14;45.29
33845;BME280;20145;43.118;25.694;2022-09-20T09:17:10;99505.25;;;18.10;44.69
33845;BME280;20145;43.118;25.694;2022-09-20T09:19:44;99519.41;;;18.04;44.44
33845;BME280;20145;43.118;25.694;2022-09-20T09:22:20;99518.44;;;17.85;45.63
33845;BME280;20145;43.118;25.694;2022-09-20T09:25:08;99503.59;;;18.08;44.77
33845;BME280;20145;43.118;25.694;2022-09-20T09:27:34;99506.34;;;18.04;45.89
33845;BME280;20145;43.118;25.694;2022-09-20T09:29:59;99499.56;;;18.21;44.51
33845;BME280;20145;43.118;25.694;2022-09-20T09:32:28;99500.47;;;17.99;44.73
33845;BME280;20145;43.118;25.694;2022-09-20T09:34:56;99496.19;;;17.75;46.11
33845;BME280;20145;43.118;25.694;2022-09-20T09:37:54;99500.19;;;17.85;45.80
33845;BME280;20145;43.118;25.694;2022-09-20T09:40:20;99493.06;;;18.09;45.77
33845;BME280;20145;43.118;25.694;2022-09-20T09:42:52;99492.84;;;18.36;45.26
33845;BME280;20145;43.118;25.694;2022-09-20T09:47:57;99497.31;;;17.91;45.84
33845;BME280;20145;43.118;25.694;2022-09-20T09:50:27;99506.16;;;17.43;46.37
33845;BME280;20145;43.118;25.694;2022-09-20T09:53:15;99510.16;;;17.52;46.30
33845;BME280;20145;43.118;25.694;2022-09-20T10:01:50;99493.78;;;17.92;45.92
33845;BME280;20145;43.118;25.694;2022-09-20T10:04:36;99496.25;;;17.95;46.17
33845;BME280;20145;43.118;25.694;2022-09-20T10:15:23;99501.19;;;18.44;43.80
33845;BME280;20145;43.118;25.694;2022-09-20T10:26:17;99485.31;;;18.69;42.86
33845;BME280;20145;43.118;25.694;2022-09-20T10:37:30;99492.91;;;18.55;42.59
33845;BME280;20145;43.118;25.694;2022-09-20T10:42:49;99481.19;;;18.63;42.06
33845;BME280;20145;43.118;25.694;2022-09-20T10:51:27;99483.75;;;18.44;42.48
33845;BME280;20145;43.118;25.694;2022-09-20T10:54:23;99463.44;;;18.31;43.94
33845;BME280;20145;43.118;25.694;2022-09-20T10:57:05;99472.44;;;18.23;43.98
33845;BME280;20145;43.118;25.694;2022-09-20T11:10:22;99468.59;;;18.12;44.58
33845;BME280;20145;43.118;25.694;2022-09-20T11:16:08;99465.94;;;18.54;43.01
33845;BME280;20145;43.118;25.694;2022-09-20T11:21:19;99459.22;;;18.67;42.77
33845;BME280;20145;43.118;25.694;2022-09-20T11:23:55;99452.84;;;18.75;43.05
33845;BME280;20145;43.118;25.694;2022-09-20T11:26:45;99442.25;;;19.34;43.71
33845;BME280;20145;43.118;25.694;2022-09-20T11:31:47;99426.03;;;19.99;40.93
33845;BME280;20145;43.118;25.694;2022-09-20T11:34:36;99425.25;;;19.79;40.89
33845;BME280;20145;43.118;25.694;2022-09-20T11:37:04;99431.88;;;19.87;39.61
33845;BME280;20145;43.118;25.694;2022-09-20T11:40:24;99426.56;;;19.71;40.64
33845;BME280;20145;43.118;25.694;2022-09-20T11:42:48;99435.31;;;19.70;40.96
33845;BME280;20145;43.118;25.694;2022-09-20T11:45:18;99438.72;;;19.72;40.06
33845;BME280;20145;43.118;25.694;2022-09-20T11:47:48;99443.06;;;19.54;39.92
33845;BME280;20145;43.118;25.694;2022-09-20T11:59:02;99421.31;;;20.05;39.77
33845;BME280;20145;43.118;25.694;2022-09-20T12:01:35;99426.09;;;19.97;39.96
33845;BME280;20145;43.118;25.694;2022-09-20T12:06:36;99424.47;;;19.77;39.44
33845;BME280;20145;43.118;25.694;2022-09-20T12:09:24;99432.72;;;19.51;39.55
33845;BME280;20145;43.118;25.694;2022-09-20T12:11:51;99430.50;;;19.43;40.46
33845;BME280;20145;43.118;25.694;2022-09-20T12:14:25;99432.25;;;19.43;40.14
33845;BME280;20145;43.118;25.694;2022-09-20T12:16:52;99421.91;;;19.39;40.57
33845;BME280;20145;43.118;25.694;2022-09-20T12:24:32;99419.91;;;19.27;41.43
33845;BME280;20145;43.118;25.694;2022-09-20T12:27:03;99422.38;;;19.30;41.15
33845;BME280;20145;43.118;25.694;2022-09-20T12:32:00;99426.97;;;19.06;42.02
33845;BME280;20145;43.118;25.694;2022-09-20T12:47:25;99423.28;;;18.72;42.28
33845;BME280;20145;43.118;25.694;2022-09-20T12:49:54;99410.91;;;18.57;42.03
33845;BME280;20145;43.118;25.694;2022-09-20T13:11:11;99414.22;;;18.61;41.15
33845;BME280;20145;43.118;25.694;2022-09-20T13:13:52;99420.66;;;18.72;41.52
33845;BME280;20145;43.118;25.694;2022-09-20T13:19:03;99419.75;;;18.73;41.11
33845;BME280;20145;43.118;25.694;2022-09-20T13:21:32;99416.94;;;18.78;41.53
33845;BME280;20145;43.118;25.694;2022-09-20T13:24:00;99412.97;;;18.69;42.15
33845;BME280;20145;43.118;25.694;2022-09-20T13:26:48;99413.63;;;18.75;41.70
33845;BME280;20145;43.118;25.694;2022-09-20T13:29:39;99405.38;;;18.84;41.17
33845;BME280;20145;43.118;25.694;2022-09-20T13:32:34;99404.19;;;18.91;41.48
33845;BME280;20145;43.118;25.694;2022-09-20T13:35:07;99400.13;;;19.03;41.85
33845;BME280;20145;43.118;25.694;2022-09-20T13:37:55;99405.94;;;18.90;41.24
33845;BME280;20145;43.118;25.694;2022-09-20T13:40:43;99410.31;;;19.09;42.36
33845;BME280;20145;43.118;25.694;2022-09-20T13:43:25;99414.44;;;18.96;40.66
33845;BME280;20145;43.118;25.694;2022-09-20T13:45:59;99416.31;;;18.92;42.53
33845;BME280;20145;43.118;25.694;2022-09-20T13:48:26;99402.19;;;18.96;40.88
33845;BME280;20145;43.118;25.694;2022-09-20T13:50:53;99414.53;;;19.11;41.30
33845;BME280;20145;43.118;25.694;2022-09-20T13:53:20;99410.72;;;19.19;41.96
33845;BME280;20145;43.118;25.694;2022-09-20T13:55:47;99414.03;;;19.22;41.12
33845;BME280;20145;43.118;25.694;2022-09-20T14:01:35;99407.88;;;19.23;40.14
33845;BME280;20145;43.118;25.694;2022-09-20T14:04:06;99425.59;;;19.18;41.16
33845;BME280;20145;43.118;25.694;2022-09-20T14:06:33;99426.63;;;19.14;40.52
33845;BME280;20145;43.118;25.694;2022-09-20T14:09:02;99425.34;;;19.04;40.87
33845;BME280;20145;43.118;25.694;2022-09-20T14:11:30;99411.88;;;18.94;41.15
33845;BME280;20145;43.118;25.694;2022-09-20T14:14:00;99416.22;;;19.31;40.67
33845;BME280;20145;43.118;25.694;2022-09-20T14:16:29;99413.38;;;19.36;40.18
33845;BME280;20145;43.118;25.694;2022-09-20T14:18:57;99411.31;;;19.43;40.38
33845;BME280;20145;43.118;25.694;2022-09-20T14:21:26;99409.25;;;19.49;39.74
33845;BME280;20145;43.118;25.694;2022-09-20T14:23:57;99415.00;;;19.38;40.20
33845;BME280;20145;43.118;25.694;2022-09-20T14:26:32;99420.06;;;19.24;39.75
33845;BME280;20145;43.118;25.694;2022-09-20T14:29:27;99421.19;;;19.00;41.05
33845;BME280;20145;43.118;25.694;2022-09-20T14:31:58;99422.47;;;18.91;41.22
33845;BME280;20145;43.118;25.694;2022-09-20T14:34:25;99417.53;;;18.85;41.58
33845;BME280;20145;43.118;25.694;2022-09-20T14:36:58;99421.91;;;18.84;41.26
33845;BME280;20145;43.118;25.694;2022-09-20T14:39:27;99423.25;;;18.74;41.20
33845;BME280;20145;43.118;25.694;2022-09-20T14:41:52;99425.09;;;18.70;41.12
33845;BME280;20145;43.118;25.694;2022-09-20T14:44:30;99425.03;;;18.72;41.13
33845;BME280;20145;43.118;25.694;2022-09-20T14:46:58;99427.84;;;18.67;41.61
33845;BME280;20145;43.118;25.694;2022-09-20T14:51:53;99426.16;;;18.66;41.30
33845;BME280;20145;43.118;25.694;2022-09-20T14:54:23;99424.69;;;18.61;42.20
33845;BME280;20145;43.118;25.694;2022-09-20T14:56:50;99419.88;;;18.52;41.99
33845;BME280;20145;43.118;25.694;2022-09-20T15:02:07;99422.69;;;18.47;42.70
33845;BME280;20145;43.118;25.694;2022-09-20T15:04:39;99421.66;;;18.31;41.97
33845;BME280;20145;43.118;25.694;2022-09-20T15:07:08;99431.44;;;18.25;42.75
33845;BME280;20145;43.118;25.694;2022-09-20T15:09:36;99428.13;;;18.22;43.53
33845;BME280;20145;43.118;25.694;2022-09-20T15:12:09;99428.03;;;18.23;44.25
33845;BME280;20145;43.118;25.694;2022-09-20T15:14:36;99424.06;;;18.15;43.98
33845;BME280;20145;43.118;25.694;2022-09-20T15:17:02;99427.59;;;18.14;43.23
33845;BME280;20145;43.118;25.694;2022-09-20T15:19:28;99413.00;;;18.10;43.57
33845;BME280;20145;43.118;25.694;2022-09-20T15:21:55;99424.34;;;18.09;43.17
33845;BME280;20145;43.118;25.694;2022-09-20T15:24:21;99431.47;;;18.05;43.62
33845;BME280;20145;43.118;25.694;2022-09-20T15:26:46;99438.50;;;18.03;43.42
33845;BME280;20145;43.118;25.694;2022-09-20T15:29:15;99436.06;;;17.98;42.67
33845;BME280;20145;43.118;25.694;2022-09-20T15:31:42;99439.75;;;17.94;44.19
33845;BME280;20145;43.118;25.694;2022-09-20T15:34:08;99438.16;;;17.90;43.10
33845;BME280;20145;43.118;25.694;2022-09-20T15:36:34;99439.94;;;17.90;43.47
33845;BME280;20145;43.118;25.694;2022-09-20T15:39:00;99421.13;;;17.81;43.85
33845;BME280;20145;43.118;25.694;2022-09-20T15:41:26;99427.22;;;17.82;43.98
33845;BME280;20145;43.118;25.694;2022-09-20T15:43:52;99448.41;;;17.73;44.30
33845;BME280;20145;43.118;25.694;2022-09-20T15:46:20;99442.34;;;17.72;43.80
33845;BME280;20145;43.118;25.694;2022-09-20T15:48:46;99445.00;;;17.71;44.58
33845;BME280;20145;43.118;25.694;2022-09-20T15:51:13;99440.91;;;17.65;44.37
33845;BME280;20145;43.118;25.694;2022-09-20T15:53:47;99443.59;;;17.64;45.00
33845;BME280;20145;43.118;25.694;2022-09-20T15:56:20;99443.16;;;17.52;45.08
33845;BME280;20145;43.118;25.694;2022-09-20T15:58:48;99445.09;;;17.47;45.45
33845;BME280;20145;43.118;25.694;2022-09-20T16:01:15;99440.25;;;17.38;45.33
33845;BME280;20145;43.118;25.694;2022-09-20T16:03:42;99433.56;;;17.31;45.93
33845;BME280;20145;43.118;25.694;2022-09-20T16:06:08;99441.53;;;17.28;45.18
33845;BME280;20145;43.118;25.694;2022-09-20T16:08:38;99434.75;;;17.24;45.59
33845;BME280;20145;43.118;25.694;2022-09-20T16:11:06;99451.28;;;17.23;46.60
33845;BME280;20145;43.118;25.694;2022-09-20T16:13:32;99458.41;;;17.17;48.13
33845;BME280;20145;43.118;25.694;2022-09-20T16:16:01;99443.94;;;17.10;47.51
33845;BME280;20145;43.118;25.694;2022-09-20T16:18:27;99455.34;;;17.08;47.78
33845;BME280;20145;43.118;25.694;2022-09-20T16:21:14;99457.41;;;16.98;49.46
33845;BME280;20145;43.118;25.694;2022-09-20T16:23:45;99462.16;;;16.88;49.83
33845;BME280;20145;43.118;25.694;2022-09-20T16:26:11;99464.19;;;16.80;50.34
33845;BME280;20145;43.118;25.694;2022-09-20T16:28:41;99467.03;;;16.72;51.22
33845;BME280;20145;43.118;25.694;2022-09-20T16:33:57;99459.19;;;16.49;51.61
33845;BME280;20145;43.118;25.694;2022-09-20T16:36:24;99456.28;;;16.33;52.52
33845;BME280;20145;43.118;25.694;2022-09-20T16:38:53;99458.16;;;16.30;52.35
33845;BME280;20145;43.118;25.694;2022-09-20T16:41:24;99465.25;;;16.24;52.96
33845;BME280;20145;43.118;25.694;2022-09-20T16:43:51;99451.81;;;16.12;52.53
33845;BME280;20145;43.118;25.694;2022-09-20T16:46:18;99468.34;;;16.11;52.38
33845;BME280;20145;43.118;25.694;2022-09-20T16:48:47;99467.78;;;16.01;51.52
33845;BME280;20145;43.118;25.694;2022-09-20T16:51:17;99471.31;;;15.98;53.72
33845;BME280;20145;43.118;25.694;2022-09-20T16:53:43;99481.91;;;15.94;54.06
33845;BME280;20145;43.118;25.694;2022-09-20T16:56:20;99459.94;;;15.76;53.63
33845;BME280;20145;43.118;25.694;2022-09-20T16:58:47;99474.69;;;15.75;54.92
33845;BME280;20145;43.118;25.694;2022-09-20T17:01:13;99468.88;;;15.66;55.16
33845;BME280;20145;43.118;25.694;2022-09-20T17:03:39;99478.59;;;15.60;54.99
33845;BME280;20145;43.118;25.694;2022-09-20T17:06:06;99483.94;;;15.56;54.02
33845;BME280;20145;43.118;25.694;2022-09-20T17:08:33;99485.78;;;15.52;54.95
33845;BME280;20145;43.118;25.694;2022-09-20T17:11:14;99489.38;;;15.48;54.78
33845;BME280;20145;43.118;25.694;2022-09-20T17:13:41;99485.22;;;15.43;54.97
33845;BME280;20145;43.118;25.694;2022-09-20T17:16:14;99482.78;;;15.38;55.32
33845;BME280;20145;43.118;25.694;2022-09-20T17:18:41;99487.19;;;15.34;55.22
33845;BME280;20145;43.118;25.694;2022-09-20T17:21:15;99486.53;;;15.28;55.03
33845;BME280;20145;43.118;25.694;2022-09-20T17:23:43;99491.78;;;15.26;56.26
33845;BME280;20145;43.118;25.694;2022-09-20T17:26:14;99493.72;;;15.20;55.43
33845;BME280;20145;43.118;25.694;2022-09-20T17:28:42;99495.41;;;15.21;56.55
33845;BME280;20145;43.118;25.694;2022-09-20T17:31:13;99495.41;;;15.21;56.62
33845;BME280;20145;43.118;25.694;2022-09-20T17:33:39;99497.19;;;15.18;55.75
33845;BME280;20145;43.118;25.694;2022-09-20T17:36:06;99511.94;;;15.18;55.28
33845;BME280;20145;43.118;25.694;2022-09-20T17:38:33;99505.06;;;15.17;54.09
33845;BME280;20145;43.118;25.694;2022-09-20T17:41:06;99506.75;;;15.18;55.43
33845;BME280;20145;43.118;25.694;2022-09-20T17:43:34;99500.03;;;15.11;56.18
33845;BME280;20145;43.118;25.694;2022-09-20T17:48:30;99517.13;;;15.18;55.48
33845;BME280;20145;43.118;25.694;2022-09-20T17:50:59;99520.53;;;15.22;56.10
33845;BME280;20145;43.118;25.694;2022-09-20T17:53:27;99515.22;;;15.25;54.42
33845;BME280;20145;43.118;25.694;2022-09-20T17:55:54;99520.44;;;15.25;54.92
33845;BME280;20145;43.118;25.694;2022-09-20T17:58:20;99518.56;;;15.30;54.96
33845;BME280;20145;43.118;25.694;2022-09-20T18:00:46;99516.69;;;15.33;53.01
33845;BME280;20145;43.118;25.694;2022-09-20T18:03:12;99525.22;;;15.38;55.17
33845;BME280;20145;43.118;25.694;2022-09-20T18:05:38;99525.94;;;15.44;52.92
33845;BME280;20145;43.118;25.694;2022-09-20T18:08:04;99528.53;;;15.44;52.57
33845;BME280;20145;43.118;25.694;2022-09-20T18:10:30;99531.91;;;15.46;53.87
33845;BME280;20145;43.118;25.694;2022-09-20T18:12:55;99527.50;;;15.49;54.48
33845;BME280;20145;43.118;25.694;2022-09-20T18:15:21;99536.19;;;15.48;53.66
33845;BME280;20145;43.118;25.694;2022-09-20T18:17:48;99534.53;;;15.46;55.35
33845;BME280;20145;43.118;25.694;2022-09-20T18:20:13;99532.53;;;15.54;55.83
33845;BME280;20145;43.118;25.694;2022-09-20T18:22:39;99532.53;;;15.54;55.21
33845;BME280;20145;43.118;25.694;2022-09-20T18:25:05;99538.66;;;15.53;53.10
33845;BME280;20145;43.118;25.694;2022-09-20T18:27:31;99504.69;;;15.29;54.52